createdAt,value
2018-09-28T00:00:11.333Z,8.83
2018-09-28T00:02:40.151Z,9.03
2018-09-28T00:05:08.791Z,9.73
2018-09-28T00:07:37.673Z,8.73
2018-09-28T00:10:06.330Z,9.20
2018-09-28T00:12:34.773Z,9.20
2018-09-28T00:15:04.425Z,8.37
2018-09-28T00:17:33.293Z,8.87
2018-09-28T00:20:02.317Z,10.67
2018-09-28T00:22:30.838Z,9.73
2018-09-28T00:24:59.398Z,9.80
2018-09-28T00:27:28.245Z,9.33
2018-09-28T00:29:58.834Z,8.60
2018-09-28T00:32:27.674Z,10.30
2018-09-28T00:34:56.684Z,10.20
2018-09-28T00:37:25.134Z,9.83
2018-09-28T00:39:53.796Z,9.90
2018-09-28T00:42:22.657Z,9.60
2018-09-28T00:44:52.274Z,10.33
2018-09-28T00:47:21.105Z,10.37
2018-09-28T00:49:51.123Z,12.00
2018-09-28T00:52:20.043Z,11.30
2018-09-28T00:54:49.047Z,11.70
2018-09-28T00:57:17.555Z,12.93
2018-09-28T00:59:46.094Z,12.63
2018-09-28T01:02:14.623Z,12.70
2018-09-28T01:04:43.640Z,14.33
2018-09-28T01:07:12.132Z,13.97
2018-09-28T01:09:42.187Z,12.03
2018-09-28T01:12:10.628Z,12.97
2018-09-28T01:14:39.633Z,13.70
2018-09-28T01:17:08.549Z,13.40
2018-09-28T01:19:40.705Z,12.37
2018-09-28T01:22:09.188Z,13.30
2018-09-28T01:24:37.840Z,13.63
2018-09-28T01:27:06.278Z,12.87
2018-09-28T01:29:35.915Z,14.33
2018-09-28T01:32:04.440Z,12.87
2018-09-28T01:34:33.081Z,13.90
2018-09-28T01:37:01.582Z,14.90
2018-09-28T01:39:30.599Z,13.60
2018-09-28T01:41:59.097Z,15.10
2018-09-28T01:44:28.098Z,13.07
2018-09-28T01:46:57.023Z,13.80
2018-09-28T01:49:26.105Z,14.17
2018-09-28T01:51:54.800Z,12.90
2018-09-28T01:54:23.418Z,14.17
2018-09-28T01:56:51.905Z,13.87
2018-09-28T01:59:20.968Z,13.77
2018-09-28T02:01:49.852Z,14.17
2018-09-28T02:04:18.436Z,13.47
2018-09-28T02:06:47.368Z,14.53
2018-09-28T02:09:15.993Z,14.63
2018-09-28T02:11:44.440Z,15.53
2018-09-28T02:14:13.126Z,15.03
2018-09-28T02:16:42.054Z,15.27
2018-09-28T02:19:11.134Z,15.27
2018-09-28T02:21:39.621Z,15.87
2018-09-28T02:24:08.735Z,14.40
2018-09-28T02:26:37.659Z,15.30
2018-09-28T02:29:07.710Z,17.20
2018-09-28T02:31:36.911Z,15.73
2018-09-28T02:34:05.527Z,16.80
2018-09-28T02:36:34.026Z,17.20
2018-09-28T02:39:03.676Z,17.03
2018-09-28T02:41:32.183Z,15.83
2018-09-28T02:44:01.773Z,16.77
2018-09-28T02:46:30.454Z,16.77
2018-09-28T02:48:59.063Z,17.33
2018-09-28T02:51:27.983Z,19.00
2018-09-28T02:53:57.023Z,17.53
2018-09-28T02:56:25.928Z,19.30
2018-09-28T02:58:55.982Z,19.60
2018-09-28T03:01:25.083Z,18.80
2018-09-28T03:03:53.604Z,18.73
2018-09-28T03:06:22.712Z,19.57
2018-09-28T03:08:51.191Z,18.23
2018-09-28T03:11:19.807Z,19.67
2018-09-28T03:13:48.781Z,18.93
2018-09-28T03:16:17.394Z,19.87
2018-09-28T03:18:45.860Z,20.23
2018-09-28T03:21:15.519Z,20.50
2018-09-28T03:23:44.029Z,20.83
2018-09-28T03:26:14.700Z,21.97
2018-09-28T03:28:43.569Z,23.13
2018-09-28T03:31:12.175Z,21.67
2018-09-28T03:33:40.622Z,23.37
2018-09-28T03:36:09.621Z,24.43
2018-09-28T03:38:38.522Z,23.20
2018-09-28T03:41:07.594Z,24.43
2018-09-28T03:43:36.097Z,23.67
2018-09-28T03:46:05.690Z,24.93
2018-09-28T03:48:34.595Z,24.70
2018-09-28T03:51:04.193Z,24.10
2018-09-28T03:53:32.964Z,23.37
2018-09-28T03:56:01.936Z,25.47
2018-09-28T03:58:30.845Z,26.03
2018-09-28T04:01:00.481Z,25.83
2018-09-28T04:03:28.927Z,26.30
2018-09-28T04:05:57.963Z,26.43
2018-09-28T04:08:26.870Z,23.93
2018-09-28T04:10:55.896Z,26.43
2018-09-28T04:13:24.398Z,26.77
2018-09-28T04:15:54.424Z,28.87
2018-09-28T04:18:22.926Z,28.50
2018-09-28T04:20:52.037Z,25.43
2018-09-28T04:23:20.970Z,25.77
2018-09-28T04:25:49.543Z,30.80
2018-09-28T04:28:18.481Z,29.80
2018-09-28T04:30:47.528Z,29.53
2018-09-28T04:33:15.981Z,31.47
2018-09-28T04:35:46.073Z,32.50
2018-09-28T04:38:14.596Z,33.77
2018-09-28T04:40:43.624Z,30.87
2018-09-28T04:43:12.138Z,31.53
2018-09-28T04:45:41.289Z,31.93
2018-09-28T04:48:10.129Z,33.17
2018-09-28T04:50:38.777Z,33.37
2018-09-28T04:53:07.384Z,27.30
2018-09-28T04:55:38.385Z,25.00
2018-09-28T04:58:06.869Z,25.63
2018-09-28T05:00:35.495Z,27.00
2018-09-28T05:03:04.401Z,24.10
2018-09-28T05:05:32.966Z,27.87
2018-09-28T05:08:01.875Z,28.50
2018-09-28T05:10:30.450Z,30.23
2018-09-28T05:12:59.400Z,27.70
2018-09-28T05:15:28.347Z,25.97
2018-09-28T05:17:57.293Z,24.90
2018-09-28T05:20:27.291Z,22.03
2018-09-28T05:22:55.788Z,21.20
2018-09-28T05:25:24.846Z,20.63
2018-09-28T05:27:53.345Z,20.43
2018-09-28T05:30:21.982Z,19.13
2018-09-28T05:32:50.657Z,20.30
2018-09-28T05:35:19.437Z,18.77
2018-09-28T05:37:47.905Z,16.63
2018-09-28T05:40:17.507Z,15.10
2018-09-28T05:42:46.408Z,16.33
2018-09-28T05:45:14.997Z,13.03
2018-09-28T05:47:43.483Z,14.43
2018-09-28T05:50:12.441Z,11.93
2018-09-28T05:52:41.447Z,10.97
2018-09-28T05:55:10.045Z,9.50
2018-09-28T05:57:40.069Z,8.37
2018-09-28T06:00:14.219Z,6.07
2018-09-28T06:02:47.923Z,5.80
2018-09-28T06:05:21.897Z,5.13
2018-09-28T06:07:50.485Z,4.13
2018-09-28T06:10:19.569Z,3.30
2018-09-28T06:12:48.129Z,3.37
2018-09-28T06:15:16.958Z,2.60
2018-09-28T06:17:45.911Z,2.97
2018-09-28T06:20:16.006Z,3.03
2018-09-28T06:22:44.871Z,2.33
2018-09-28T06:25:13.932Z,2.50
2018-09-28T06:27:42.865Z,2.30
2018-09-28T06:30:11.980Z,2.50
2018-09-28T06:32:41.082Z,2.80
2018-09-28T06:35:09.850Z,2.40
2018-09-28T06:37:38.865Z,2.10
2018-09-28T06:40:07.685Z,1.87
2018-09-28T06:42:37.372Z,2.47
2018-09-28T06:45:06.026Z,2.70
2018-09-28T06:47:34.530Z,2.23
2018-09-28T06:50:04.668Z,3.00
2018-09-28T06:52:33.473Z,2.73
2018-09-28T06:55:02.928Z,2.73
2018-09-28T06:57:31.859Z,2.37
2018-09-28T07:00:00.558Z,2.40
2018-09-28T07:02:29.049Z,2.00
2018-09-28T07:04:59.058Z,2.53
2018-09-28T07:07:27.614Z,2.67
2018-09-28T07:09:56.245Z,2.60
2018-09-28T07:12:24.757Z,2.80
2018-09-28T07:14:53.360Z,2.40
2018-09-28T07:17:22.311Z,2.37
2018-09-28T07:19:51.889Z,2.20
2018-09-28T07:22:20.396Z,2.47
2018-09-28T07:24:49.482Z,3.07
2018-09-28T07:27:17.902Z,2.50
2018-09-28T07:29:47.562Z,2.93
2018-09-28T07:32:16.511Z,2.63
2018-09-28T07:34:45.196Z,3.07
2018-09-28T07:37:13.867Z,2.67
2018-09-28T07:39:43.789Z,3.13
2018-09-28T07:42:12.302Z,2.80
2018-09-28T07:44:41.471Z,2.93
2018-09-28T07:47:10.337Z,2.73
2018-09-28T07:49:40.024Z,2.57
2018-09-28T07:52:08.907Z,2.97
2018-09-28T07:54:37.527Z,3.50
2018-09-28T07:57:06.038Z,2.90
2018-09-28T07:59:35.079Z,3.50
2018-09-28T08:02:03.998Z,2.63
2018-09-28T08:04:33.140Z,2.87
2018-09-28T08:07:01.673Z,4.20
2018-09-28T08:09:31.308Z,2.93
2018-09-28T08:12:00.189Z,3.37
2018-09-28T08:14:28.928Z,2.80
2018-09-28T08:16:57.377Z,2.77
2018-09-28T08:19:26.481Z,3.20
2018-09-28T08:21:54.965Z,2.90
2018-09-28T08:24:23.645Z,2.87
2018-09-28T08:26:52.130Z,2.47
2018-09-28T08:29:20.848Z,3.73
2018-09-28T08:31:49.285Z,3.30
2018-09-28T08:34:18.952Z,2.73
2018-09-28T08:36:47.987Z,2.93
2018-09-28T08:39:17.618Z,2.27
2018-09-28T08:41:46.167Z,2.47
2018-09-28T08:44:19.313Z,2.60
2018-09-28T08:46:48.148Z,2.90
2018-09-28T08:49:17.800Z,2.87
2018-09-28T08:51:46.270Z,2.67
2018-09-28T08:54:15.460Z,3.80
2018-09-28T08:56:44.001Z,2.93
2018-09-28T08:59:12.752Z,2.77
2018-09-28T09:01:41.222Z,2.37
2018-09-28T09:04:10.293Z,3.40
2018-09-28T09:06:38.757Z,2.50
2018-09-28T09:09:10.398Z,2.63
2018-09-28T09:11:39.260Z,3.37
2018-09-28T09:14:08.588Z,3.10
2018-09-28T09:16:37.535Z,2.33
2018-09-28T09:19:06.651Z,2.70
2018-09-28T09:21:35.099Z,2.57
2018-09-28T09:24:04.203Z,3.87
2018-09-28T09:26:33.136Z,3.20
2018-09-28T09:29:02.305Z,2.43
2018-09-28T09:31:30.778Z,3.77
2018-09-28T09:33:59.391Z,2.83
2018-09-28T09:36:27.952Z,2.63
2018-09-28T09:38:58.657Z,3.43
2018-09-28T09:41:27.536Z,3.30
2018-09-28T09:43:56.208Z,2.80
2018-09-28T09:46:25.107Z,2.77
2018-09-28T09:48:53.787Z,2.83
2018-09-28T09:51:22.296Z,2.60
2018-09-28T09:53:50.938Z,2.70
2018-09-28T09:56:19.412Z,2.50
2018-09-28T09:58:48.034Z,2.60
2018-09-28T10:01:22.195Z,2.20
2018-09-28T10:03:51.928Z,2.37
2018-09-28T10:06:21.014Z,2.80
2018-09-28T10:08:49.860Z,2.80
2018-09-28T10:11:18.917Z,2.53
2018-09-28T10:13:47.434Z,2.40
2018-09-28T10:16:16.497Z,3.03
2018-09-28T10:18:45.453Z,1.90
2018-09-28T10:21:14.518Z,2.63
2018-09-28T10:23:42.986Z,3.10
2018-09-28T10:26:12.064Z,2.20
2018-09-28T10:28:40.623Z,3.10
2018-09-28T10:31:09.224Z,3.23
2018-09-28T10:33:37.776Z,2.80
2018-09-28T10:36:06.892Z,2.93
2018-09-28T10:38:35.736Z,2.73
2018-09-28T10:41:04.436Z,2.90
2018-09-28T10:43:33.332Z,2.83
2018-09-28T10:46:03.422Z,2.53
2018-09-28T10:48:31.911Z,2.70
2018-09-28T10:51:00.555Z,2.67
2018-09-28T10:53:29.099Z,2.40
2018-09-28T10:55:58.208Z,2.00
2018-09-28T10:58:27.176Z,2.67
2018-09-28T11:00:55.804Z,2.27
2018-09-28T11:03:24.355Z,1.83
2018-09-28T11:05:53.371Z,2.00
2018-09-28T11:08:21.893Z,2.10
2018-09-28T11:10:51.501Z,1.97
2018-09-28T11:13:20.436Z,2.40
2018-09-28T11:15:51.660Z,2.10
2018-09-28T11:18:20.501Z,1.90
2018-09-28T11:20:50.623Z,2.30
2018-09-28T11:23:19.066Z,1.93
2018-09-28T11:25:50.207Z,2.47
2018-09-28T11:28:19.084Z,2.47
2018-09-28T11:30:48.084Z,2.30
2018-09-28T11:33:17.107Z,1.93
2018-09-28T11:35:45.756Z,1.83
2018-09-28T11:38:14.232Z,2.60
2018-09-28T11:40:44.266Z,2.10
2018-09-28T11:43:12.880Z,1.60
2018-09-28T11:45:41.872Z,2.13
2018-09-28T11:48:10.835Z,1.70
2018-09-28T11:50:39.854Z,1.90
2018-09-28T11:53:08.880Z,1.43
2018-09-28T11:55:37.613Z,1.90
2018-09-28T11:58:06.173Z,1.60
2018-09-28T12:00:34.817Z,1.53
2018-09-28T12:03:03.322Z,1.80
2018-09-28T12:05:36.166Z,1.90
2018-09-28T12:08:04.701Z,1.83
2018-09-28T12:10:33.379Z,1.33
2018-09-28T12:13:01.852Z,1.40
2018-09-28T12:15:42.030Z,2.23
2018-09-28T12:18:10.532Z,2.63
2018-09-28T12:20:40.164Z,2.00
2018-09-28T12:23:08.686Z,1.77
2018-09-28T12:25:37.730Z,2.27
2018-09-28T12:28:06.249Z,1.70
2018-09-28T12:30:47.572Z,2.07
2018-09-28T12:33:16.556Z,2.10
2018-09-28T12:35:53.494Z,2.17
2018-09-28T12:38:22.530Z,1.90
2018-09-28T12:40:51.547Z,2.00
2018-09-28T12:43:20.002Z,2.10
2018-09-28T12:45:50.029Z,1.77
2018-09-28T12:48:19.132Z,1.47
2018-09-28T12:50:48.220Z,2.60
2018-09-28T12:53:16.709Z,1.50
2018-09-28T12:55:47.142Z,1.97
2018-09-28T12:58:15.651Z,2.00
2018-09-28T13:00:48.745Z,2.43
2018-09-28T13:03:17.204Z,2.17
2018-09-28T13:05:46.792Z,2.07
2018-09-28T13:08:15.270Z,1.87
2018-09-28T13:10:44.873Z,1.43
2018-09-28T13:13:13.344Z,2.07
2018-09-28T13:15:43.033Z,1.70
2018-09-28T13:18:11.940Z,2.03
2018-09-28T13:20:41.006Z,2.13
2018-09-28T13:23:09.765Z,1.70
2018-09-28T13:25:40.786Z,2.27
2018-09-28T13:28:09.304Z,2.03
2018-09-28T13:30:37.881Z,1.70
2018-09-28T13:33:06.798Z,1.50
2018-09-28T13:35:35.487Z,1.50
2018-09-28T13:38:04.458Z,1.47
2018-09-28T13:40:33.558Z,1.60
2018-09-28T13:43:02.434Z,1.77
2018-09-28T13:45:31.596Z,1.83
2018-09-28T13:48:00.065Z,1.80
2018-09-28T13:50:28.721Z,1.30
2018-09-28T13:52:57.288Z,1.20
2018-09-28T13:55:26.327Z,1.10
2018-09-28T13:57:54.815Z,1.43
2018-09-28T14:00:23.522Z,1.50
2018-09-28T14:02:52.390Z,1.30
2018-09-28T14:05:21.378Z,0.97
2018-09-28T14:07:49.900Z,1.20
2018-09-28T14:10:19.018Z,1.30
2018-09-28T14:12:48.029Z,1.33
2018-09-28T14:15:17.583Z,1.73
2018-09-28T14:17:46.125Z,1.30
2018-09-28T14:20:14.806Z,1.43
2018-09-28T14:22:43.292Z,1.87
2018-09-28T14:25:11.794Z,1.60
2018-09-28T14:27:40.661Z,1.50
2018-09-28T14:30:09.336Z,1.73
2018-09-28T14:32:38.299Z,1.20
2018-09-28T14:35:07.288Z,1.30
2018-09-28T14:37:36.231Z,1.37
2018-09-28T14:40:05.388Z,1.20
2018-09-28T14:42:33.914Z,2.00
2018-09-28T14:45:02.534Z,1.40
2018-09-28T14:47:31.469Z,2.33
2018-09-28T14:50:00.105Z,1.67
2018-09-28T14:53:47.771Z,1.90
2018-09-28T14:56:17.057Z,1.60
2018-09-28T14:58:46.157Z,1.67
2018-09-28T15:01:15.113Z,1.70
2018-09-28T15:03:44.150Z,1.97
2018-09-28T15:06:13.083Z,1.47
2018-09-28T15:08:42.270Z,1.57
2018-09-28T15:11:11.176Z,1.50
2018-09-28T15:13:43.723Z,1.70
2018-09-28T15:16:12.691Z,1.40
2018-09-28T15:18:41.855Z,1.40
2018-09-28T15:21:10.701Z,1.80
2018-09-28T15:23:39.756Z,1.40
2018-09-28T15:26:09.287Z,1.67
2018-09-28T15:28:38.410Z,1.73
2018-09-28T15:31:07.862Z,1.70
2018-09-28T15:33:37.102Z,1.33
2018-09-28T15:36:06.530Z,1.63
2018-09-28T15:38:35.581Z,1.40
2018-09-28T15:41:04.492Z,1.47
2018-09-28T15:43:33.542Z,1.77
2018-09-28T15:46:02.410Z,1.70
2018-09-28T15:48:31.435Z,1.77
2018-09-28T15:51:00.407Z,1.93
2018-09-28T15:53:29.534Z,1.93
2018-09-28T15:55:58.906Z,1.70
2018-09-28T15:58:27.982Z,1.67
2018-09-28T16:00:56.892Z,2.10
2018-09-28T16:03:25.874Z,1.97
2018-09-28T16:05:54.798Z,1.67
2018-09-28T16:08:23.785Z,1.60
2018-09-28T16:10:52.665Z,2.20
2018-09-28T16:13:21.660Z,2.00
2018-09-28T16:15:50.926Z,2.37
2018-09-28T16:18:19.887Z,2.23
2018-09-28T16:20:48.778Z,1.90
2018-09-28T16:23:17.798Z,1.80
2018-09-28T16:25:50.231Z,1.70
2018-09-28T16:31:22.958Z,1.47
2018-09-28T16:33:52.104Z,1.67
2018-09-28T16:36:22.601Z,1.40
2018-09-28T16:38:55.533Z,2.07
2018-09-28T16:41:25.228Z,1.73
2018-09-28T16:43:54.160Z,2.03
2018-09-28T16:46:23.105Z,1.90
2018-09-28T16:48:52.118Z,1.90
2018-09-28T16:51:20.960Z,1.80
2018-09-28T16:53:51.093Z,2.27
2018-09-28T16:56:20.032Z,1.73
2018-09-28T16:58:49.027Z,2.07
2018-09-28T17:01:17.905Z,2.60
2018-09-28T17:03:46.833Z,1.90
2018-09-28T17:06:15.669Z,2.07
2018-09-28T17:08:46.671Z,2.03
2018-09-28T17:11:15.548Z,1.87
2018-09-28T17:13:46.603Z,2.23
2018-09-28T17:16:15.496Z,1.60
2018-09-28T17:18:44.724Z,1.63
2018-09-28T17:21:13.565Z,1.90
2018-09-28T17:23:42.639Z,2.27
2018-09-28T17:26:11.597Z,1.60
2018-09-28T17:28:41.671Z,2.17
2018-09-28T17:31:10.547Z,2.27
2018-09-28T17:33:40.028Z,1.77
2018-09-28T17:36:08.921Z,1.93
2018-09-28T17:38:37.923Z,1.43
2018-09-28T17:41:06.983Z,2.23
2018-09-28T17:43:36.637Z,1.77
2018-09-28T17:46:06.903Z,2.10
2018-09-28T17:48:36.103Z,2.27
2018-09-28T17:51:05.436Z,1.73
2018-09-28T17:53:34.302Z,2.03
2018-09-28T17:56:03.482Z,2.03
2018-09-28T17:58:32.487Z,1.97
2018-09-28T18:01:03.663Z,1.60
2018-09-28T18:03:32.507Z,2.77
2018-09-28T18:06:01.627Z,1.80
2018-09-28T18:08:30.509Z,2.00
2018-09-28T18:10:59.586Z,1.80
2018-09-28T18:13:28.480Z,1.47
2018-09-28T18:15:58.626Z,1.80
2018-09-28T18:18:27.495Z,2.20
2018-09-28T18:20:58.666Z,2.17
2018-09-28T18:23:27.653Z,1.70
2018-09-28T18:25:58.729Z,2.57
2018-09-28T18:28:27.643Z,1.77
2018-09-28T18:30:57.648Z,2.27
2018-09-28T18:33:26.650Z,1.93
2018-09-28T18:35:55.776Z,2.27
2018-09-28T18:38:24.706Z,2.00
2018-09-28T18:40:53.761Z,2.07
2018-09-28T18:43:23.340Z,1.97
2018-09-28T18:45:52.818Z,2.10
2018-09-28T18:48:21.825Z,2.10
2018-09-28T18:50:50.836Z,2.80
2018-09-28T18:53:19.961Z,2.20
2018-09-28T18:55:49.054Z,2.80
2018-09-28T18:58:17.993Z,2.73
2018-09-28T19:00:47.005Z,2.10
2018-09-28T19:03:16.216Z,1.83
2018-09-28T19:05:45.424Z,2.63
2018-09-28T19:08:14.336Z,1.90
2018-09-28T19:10:43.407Z,2.07
2018-09-28T19:13:12.335Z,2.10
2018-09-28T19:15:41.391Z,2.10
2018-09-28T19:18:10.281Z,2.60
2018-09-28T19:20:40.919Z,1.90
2018-09-28T19:23:10.638Z,1.70
2018-09-28T19:25:39.830Z,2.20
2018-09-28T19:28:08.772Z,1.93
2018-09-28T19:30:37.824Z,1.80
2018-09-28T19:33:06.685Z,2.20
2018-09-28T19:35:39.387Z,2.40
2018-09-28T19:38:08.302Z,2.27
2018-09-28T19:40:37.336Z,2.20
2018-09-28T19:43:06.245Z,1.90
2018-09-28T19:45:35.491Z,2.43
2018-09-28T19:48:04.394Z,2.50
2018-09-28T19:50:33.432Z,2.10
2018-09-28T19:53:02.475Z,2.43
2018-09-28T19:55:31.523Z,2.20
2018-09-28T19:58:00.492Z,2.77
2018-09-28T20:00:29.898Z,2.40
2018-09-28T20:02:58.856Z,2.80
2018-09-28T20:05:27.856Z,2.17
2018-09-28T20:07:57.103Z,2.33
2018-09-28T20:10:26.141Z,2.47
2018-09-28T20:12:54.976Z,1.60
2018-09-28T20:15:24.326Z,1.90
2018-09-28T20:17:53.202Z,2.60
2018-09-28T20:20:22.189Z,2.17
2018-09-28T20:22:51.105Z,2.93
2018-09-28T20:25:20.125Z,1.90
2018-09-28T20:27:49.008Z,2.63
2018-09-28T20:30:18.239Z,2.70
2018-09-28T20:32:47.159Z,2.50
2018-09-28T20:35:16.173Z,2.70
2018-09-28T20:37:45.082Z,3.40
2018-09-28T20:40:14.077Z,2.57
2018-09-28T20:42:42.956Z,2.90
2018-09-28T20:45:12.026Z,2.20
2018-09-28T20:47:40.931Z,3.63
2018-09-28T20:50:09.943Z,3.53
2018-09-28T20:52:38.841Z,3.03
2018-09-28T20:55:07.904Z,3.30
2018-09-28T20:57:36.780Z,2.30
2018-09-28T21:00:06.017Z,2.90
2018-09-28T21:02:34.888Z,3.00
2018-09-28T21:05:03.994Z,2.43
2018-09-28T21:07:32.924Z,2.57
2018-09-28T21:10:02.018Z,2.27
2018-09-28T21:12:30.859Z,2.60
2018-09-28T21:14:59.879Z,2.40
2018-09-28T21:17:29.301Z,2.67
2018-09-28T21:19:58.446Z,2.30
2018-09-28T21:22:27.330Z,2.43
2018-09-28T21:24:56.521Z,2.30
2018-09-28T21:27:25.450Z,2.33
2018-09-28T21:29:54.984Z,2.10
2018-09-28T21:32:27.863Z,2.43
2018-09-28T21:34:58.680Z,2.40
2018-09-28T21:37:27.937Z,2.47
2018-09-28T21:39:56.972Z,2.10
2018-09-28T21:42:25.892Z,2.33
2018-09-28T21:44:55.926Z,2.23
2018-09-28T21:47:24.828Z,2.53
2018-09-28T21:49:55.838Z,1.90
2018-09-28T21:52:24.984Z,2.23
2018-09-28T21:54:54.008Z,2.53
2018-09-28T21:57:22.908Z,2.10
2018-09-28T21:59:52.933Z,2.53
2018-09-28T22:02:21.847Z,2.03
2018-09-28T22:04:53.161Z,2.40
2018-09-28T22:07:22.075Z,2.00
2018-09-28T22:09:51.144Z,2.27
2018-09-28T22:12:20.070Z,2.40
2018-09-28T22:14:49.135Z,2.17
2018-09-28T22:17:18.008Z,2.07
2018-09-28T22:19:47.019Z,3.23
2018-09-28T22:22:15.910Z,3.80
2018-09-28T22:24:44.930Z,6.97
2018-09-28T22:27:13.836Z,9.13
2018-09-28T22:29:42.873Z,6.97
2018-09-28T22:32:11.725Z,7.90
2018-09-28T22:34:40.824Z,7.83
2018-09-28T22:37:09.746Z,7.53
2018-09-28T22:39:38.776Z,6.53
2018-09-28T22:42:07.663Z,11.20
2018-09-28T22:44:37.720Z,6.70
2018-09-28T22:47:06.685Z,4.40
2018-09-28T22:49:35.722Z,3.03
2018-09-28T22:52:04.633Z,3.00
2018-09-28T22:54:33.617Z,2.90
2018-09-28T22:57:02.504Z,2.40
2018-09-28T22:59:31.547Z,2.63
2018-09-28T23:02:00.534Z,2.40
2018-09-28T23:04:29.610Z,2.37
2018-09-28T23:06:58.476Z,2.93
2018-09-28T23:09:28.570Z,2.40
2018-09-28T23:11:57.434Z,2.40
2018-09-28T23:14:26.510Z,2.50
2018-09-28T23:16:55.400Z,2.60
2018-09-28T23:19:24.462Z,2.90
2018-09-28T23:21:53.458Z,2.90
2018-09-28T23:24:22.576Z,3.00
2018-09-28T23:26:51.437Z,3.00
2018-09-28T23:29:22.511Z,2.40
2018-09-28T23:31:51.394Z,2.43
2018-09-28T23:34:20.421Z,2.90
2018-09-28T23:36:49.277Z,3.90
2018-09-28T23:39:18.267Z,2.87
2018-09-28T23:41:47.189Z,2.73
2018-09-28T23:44:16.330Z,2.70
2018-09-28T23:46:45.199Z,3.13
2018-09-28T23:49:15.261Z,2.93
2018-09-28T23:51:44.181Z,2.53
2018-09-28T23:54:13.212Z,2.63
2018-09-28T23:56:42.101Z,2.40
2018-09-28T23:59:11.182Z,2.67
